createdAt,value
2018-04-23T00:00:01.786Z,17.03
2018-04-23T00:02:29.324Z,16.98
2018-04-23T00:04:56.789Z,16.94
2018-04-23T00:07:24.284Z,16.92
2018-04-23T00:09:51.883Z,16.93
2018-04-23T00:12:19.349Z,16.90
2018-04-23T00:14:46.829Z,16.84
2018-04-23T00:17:14.321Z,16.76
2018-04-23T00:19:41.844Z,16.72
2018-04-23T00:22:09.322Z,16.76
2018-04-23T00:24:37.163Z,16.80
2018-04-23T00:27:04.653Z,16.73
2018-04-23T00:29:32.130Z,16.71
2018-04-23T00:31:59.590Z,16.60
2018-04-23T00:34:27.133Z,16.49
2018-04-23T00:36:54.674Z,16.51
2018-04-23T00:39:22.148Z,16.45
2018-04-23T00:41:49.692Z,16.38
2018-04-23T00:44:19.011Z,16.33
2018-04-23T00:46:46.512Z,16.29
2018-04-23T00:49:14.174Z,16.23
2018-04-23T00:51:41.691Z,16.19
2018-04-23T00:54:09.704Z,16.14
2018-04-23T00:56:38.194Z,16.16
2018-04-23T00:59:05.710Z,16.11
2018-04-23T01:01:33.159Z,16.05
2018-04-23T01:04:01.023Z,15.99
2018-04-23T01:06:28.622Z,15.94
2018-04-23T01:08:56.084Z,15.89
2018-04-23T01:11:23.611Z,15.92
2018-04-23T01:13:51.122Z,15.91
2018-04-23T01:16:18.669Z,15.89
2018-04-23T01:18:46.149Z,15.91
2018-04-23T01:21:13.610Z,16.05
2018-04-23T01:23:41.070Z,16.14
2018-04-23T01:26:08.856Z,16.25
2018-04-23T01:28:36.363Z,16.27
2018-04-23T01:31:03.870Z,16.25
2018-04-23T01:33:31.363Z,16.36
2018-04-23T01:35:58.821Z,16.31
2018-04-23T01:38:26.298Z,16.20
2018-04-23T01:40:53.770Z,16.11
2018-04-23T01:43:21.321Z,16.06
2018-04-23T01:45:48.890Z,16.04
2018-04-23T01:48:16.349Z,15.98
2018-04-23T01:50:43.806Z,15.90
2018-04-23T01:53:11.277Z,15.85
2018-04-23T01:55:38.754Z,15.83
2018-04-23T01:58:06.303Z,15.80
2018-04-23T02:00:34.236Z,15.75
2018-04-23T02:03:01.747Z,15.77
2018-04-23T02:05:29.253Z,15.85
2018-04-23T02:07:56.703Z,15.94
2018-04-23T02:10:24.181Z,15.90
2018-04-23T02:12:52.130Z,15.88
2018-04-23T02:15:19.583Z,15.86
2018-04-23T02:17:47.141Z,15.93
2018-04-23T02:20:14.629Z,16.00
2018-04-23T02:22:42.097Z,15.98
2018-04-23T02:25:09.632Z,15.91
2018-04-23T02:27:37.102Z,15.84
2018-04-23T02:30:05.986Z,15.78
2018-04-23T02:32:33.445Z,15.73
2018-04-23T02:35:00.926Z,15.69
2018-04-23T02:37:28.393Z,15.62
2018-04-23T02:39:55.943Z,15.55
2018-04-23T02:42:23.414Z,15.50
2018-04-23T02:44:50.877Z,15.43
2018-04-23T02:47:18.344Z,15.41
2018-04-23T02:49:45.818Z,15.36
2018-04-23T02:52:13.276Z,15.32
2018-04-23T02:54:40.771Z,15.32
2018-04-23T02:57:08.251Z,15.28
2018-04-23T02:59:35.721Z,15.24
2018-04-23T03:02:03.224Z,15.17
2018-04-23T03:04:30.703Z,15.13
2018-04-23T03:06:58.174Z,15.09
2018-04-23T03:09:25.729Z,15.06
2018-04-23T03:11:53.220Z,15.04
2018-04-23T03:14:20.703Z,15.01
2018-04-23T03:16:48.189Z,14.98
2018-04-23T03:19:15.663Z,14.94
2018-04-23T03:21:43.186Z,14.94
2018-04-23T03:24:10.712Z,14.98
2018-04-23T03:26:38.168Z,15.01
2018-04-23T03:29:05.643Z,14.97
2018-04-23T03:31:33.132Z,14.95
2018-04-23T03:34:00.609Z,14.92
2018-04-23T03:36:28.102Z,14.91
2018-04-23T03:38:55.585Z,14.89
2018-04-23T03:41:23.044Z,14.89
2018-04-23T03:43:50.575Z,14.87
2018-04-23T03:46:18.161Z,14.84
2018-04-23T03:48:45.619Z,14.83
2018-04-23T03:51:13.228Z,14.82
2018-04-23T03:53:40.725Z,14.86
2018-04-23T03:56:08.195Z,14.88
2018-04-23T03:58:35.681Z,14.93
2018-04-23T04:01:04.141Z,14.95
2018-04-23T04:03:31.635Z,14.93
2018-04-23T04:05:59.115Z,14.94
2018-04-23T04:08:26.592Z,14.95
2018-04-23T04:10:54.112Z,14.95
2018-04-23T04:13:33.363Z,14.97
2018-04-23T04:16:12.466Z,15.02
2018-04-23T04:18:45.950Z,15.09
2018-04-23T04:21:13.431Z,15.15
2018-04-23T04:23:40.878Z,15.21
2018-04-23T04:26:08.393Z,15.27
2018-04-23T04:28:36.747Z,15.37
2018-04-23T04:31:04.400Z,15.44
2018-04-23T04:33:31.914Z,15.53
2018-04-23T04:35:59.613Z,15.62
2018-04-23T04:38:27.087Z,15.73
2018-04-23T04:40:54.593Z,15.84
2018-04-23T04:43:22.071Z,15.95
2018-04-23T04:45:49.525Z,16.15
2018-04-23T04:48:17.049Z,16.21
2018-04-23T04:50:44.507Z,16.26
2018-04-23T04:53:12.009Z,16.28
2018-04-23T04:55:39.465Z,16.30
2018-04-23T04:58:06.971Z,16.41
2018-04-23T05:00:34.503Z,16.38
2018-04-23T05:03:01.977Z,16.41
2018-04-23T05:05:29.480Z,16.51
2018-04-23T05:07:56.963Z,16.65
2018-04-23T05:10:24.482Z,16.81
2018-04-23T05:12:51.972Z,17.02
2018-04-23T05:15:19.441Z,17.26
2018-04-23T05:17:46.931Z,17.49
2018-04-23T05:20:14.421Z,17.68
2018-04-23T05:22:41.884Z,17.93
2018-04-23T05:25:09.343Z,18.10
2018-04-23T05:27:36.858Z,18.26
2018-04-23T05:30:04.366Z,18.48
2018-04-23T05:32:31.841Z,18.68
2018-04-23T05:34:59.328Z,18.83
2018-04-23T05:37:26.781Z,18.83
2018-04-23T05:39:54.255Z,18.68
2018-04-23T05:42:21.737Z,18.62
2018-04-23T05:44:49.230Z,18.47
2018-04-23T05:47:16.706Z,18.36
2018-04-23T05:49:44.177Z,18.37
2018-04-23T05:52:11.683Z,17.84
2018-04-23T05:54:39.145Z,17.37
2018-04-23T05:57:06.598Z,17.30
2018-04-23T05:59:34.072Z,17.15
2018-04-23T06:02:01.541Z,17.09
2018-04-23T06:04:29.048Z,17.06
2018-04-23T06:06:56.528Z,17.11
2018-04-23T06:09:23.981Z,17.18
2018-04-23T06:11:52.469Z,17.28
2018-04-23T06:14:20.530Z,17.47
2018-04-23T06:16:48.957Z,17.48
2018-04-23T06:19:17.550Z,17.46
2018-04-23T06:21:45.028Z,17.41
2018-04-23T06:24:12.641Z,17.55
2018-04-23T06:26:40.180Z,17.58
2018-04-23T06:29:07.646Z,17.48
2018-04-23T06:31:35.144Z,17.44
2018-04-23T06:34:02.623Z,17.60
2018-04-23T06:36:30.101Z,17.55
2018-04-23T06:38:57.571Z,17.47
2018-04-23T06:41:25.036Z,17.37
2018-04-23T06:43:52.522Z,17.33
2018-04-23T06:46:19.999Z,17.34
2018-04-23T06:48:47.494Z,17.36
2018-04-23T06:51:14.975Z,17.40
2018-04-23T06:53:42.446Z,17.47
2018-04-23T06:56:09.918Z,17.63
2018-04-23T06:58:37.433Z,17.80
2018-04-23T07:01:04.946Z,17.89
2018-04-23T07:03:32.443Z,17.95
2018-04-23T07:05:59.919Z,18.07
2018-04-23T07:08:27.422Z,18.16
2018-04-23T07:10:54.911Z,18.35
2018-04-23T07:13:22.416Z,18.61
2018-04-23T07:15:49.881Z,18.83
2018-04-23T07:18:17.409Z,19.18
2018-04-23T07:20:44.889Z,19.61
2018-04-23T07:23:12.379Z,19.89
2018-04-23T07:25:39.843Z,20.11
2018-04-23T07:28:07.326Z,20.38
2018-04-23T07:30:34.953Z,20.38
2018-04-23T07:33:02.415Z,20.47
2018-04-23T07:35:29.901Z,20.65
2018-04-23T07:37:57.385Z,20.68
2018-04-23T07:40:24.850Z,20.53
2018-04-23T07:42:52.327Z,20.48
2018-04-23T07:45:19.799Z,20.60
2018-04-23T07:47:47.279Z,20.58
2018-04-23T07:50:14.784Z,20.43
2018-04-23T07:52:42.261Z,20.69
2018-04-23T07:55:09.751Z,20.77
2018-04-23T07:57:37.232Z,20.89
2018-04-23T08:00:04.685Z,21.05
2018-04-23T08:02:32.188Z,21.10
2018-04-23T08:04:59.692Z,21.46
2018-04-23T08:07:27.210Z,21.45
2018-04-23T08:09:54.689Z,21.57
2018-04-23T08:12:22.172Z,21.74
2018-04-23T08:14:49.632Z,21.91
2018-04-23T08:17:17.131Z,22.18
2018-04-23T08:19:44.658Z,22.41
2018-04-23T08:22:12.166Z,22.80
2018-04-23T08:24:39.636Z,23.00
2018-04-23T08:27:07.105Z,23.20
2018-04-23T08:29:34.578Z,23.46
2018-04-23T08:32:02.157Z,23.40
2018-04-23T08:34:29.593Z,23.62
2018-04-23T08:36:57.075Z,23.85
2018-04-23T08:39:24.567Z,23.82
2018-04-23T08:41:52.024Z,23.89
2018-04-23T08:44:19.513Z,24.16
2018-04-23T08:46:47.001Z,24.26
2018-04-23T08:49:14.461Z,24.34
2018-04-23T08:51:41.925Z,24.32
2018-04-23T08:54:09.389Z,24.54
2018-04-23T08:56:36.956Z,24.67
2018-04-23T08:59:04.503Z,24.61
2018-04-23T09:01:32.100Z,24.58
2018-04-23T09:03:59.574Z,24.64
2018-04-23T09:06:27.042Z,24.71
2018-04-23T09:08:54.486Z,24.92
2018-04-23T09:11:21.974Z,25.04
2018-04-23T09:13:49.430Z,24.91
2018-04-23T09:16:16.892Z,24.87
2018-04-23T09:18:44.370Z,24.92
2018-04-23T09:21:11.829Z,24.88
2018-04-23T09:23:39.306Z,25.00
2018-04-23T09:26:12.399Z,25.27
2018-04-23T09:28:39.912Z,25.33
2018-04-23T09:31:07.390Z,25.43
2018-04-23T09:33:34.844Z,25.72
2018-04-23T09:36:02.311Z,25.90
2018-04-23T09:38:29.783Z,26.12
2018-04-23T09:40:57.274Z,26.16
2018-04-23T09:43:24.734Z,25.88
2018-04-23T09:45:52.274Z,26.01
2018-04-23T09:48:19.751Z,26.11
2018-04-23T09:50:47.202Z,26.06
2018-04-23T09:53:14.677Z,26.13
2018-04-23T09:55:42.153Z,26.08
2018-04-23T09:58:09.612Z,26.11
2018-04-23T10:00:37.124Z,26.36
2018-04-23T10:03:12.199Z,26.48
2018-04-23T10:05:39.658Z,26.86
2018-04-23T10:08:07.126Z,26.79
2018-04-23T10:10:34.898Z,26.74
2018-04-23T10:13:02.378Z,26.62
2018-04-23T10:15:29.846Z,26.90
2018-04-23T10:17:57.318Z,26.89
2018-04-23T10:20:24.795Z,26.72
2018-04-23T10:22:52.303Z,26.97
2018-04-23T10:25:19.763Z,27.06
2018-04-23T10:27:47.224Z,27.30
2018-04-23T10:30:15.533Z,27.10
2018-04-23T10:32:42.990Z,27.41
2018-04-23T10:35:10.446Z,27.28
2018-04-23T10:37:37.905Z,27.03
2018-04-23T10:40:05.368Z,27.32
2018-04-23T10:42:32.861Z,27.55
2018-04-23T10:45:00.394Z,27.86
2018-04-23T10:47:27.878Z,27.99
2018-04-23T10:49:55.363Z,28.19
2018-04-23T10:52:22.817Z,28.58
2018-04-23T10:54:50.298Z,28.52
2018-04-23T10:57:17.771Z,28.43
2018-04-23T10:59:45.285Z,28.57
2018-04-23T11:02:12.766Z,29.06
2018-04-23T11:04:40.223Z,28.70
2018-04-23T11:07:07.898Z,28.47
2018-04-23T11:09:36.315Z,28.54
2018-04-23T11:12:04.077Z,28.68
2018-04-23T11:14:32.871Z,28.66
2018-04-23T11:17:00.321Z,28.73
2018-04-23T11:19:27.799Z,28.62
2018-04-23T11:21:55.257Z,28.60
2018-04-23T11:24:23.243Z,28.70
2018-04-23T11:26:50.723Z,28.95
2018-04-23T11:29:18.348Z,29.00
2018-04-23T11:31:45.820Z,28.77
2018-04-23T11:34:13.337Z,28.81
2018-04-23T11:36:40.797Z,29.05
2018-04-23T11:39:08.280Z,29.33
2018-04-23T11:41:35.753Z,29.42
2018-04-23T11:44:03.443Z,29.92
2018-04-23T11:46:30.897Z,29.84
2018-04-23T11:48:58.424Z,30.08
2018-04-23T11:51:25.918Z,29.73
2018-04-23T11:53:53.420Z,29.44
2018-04-23T11:56:20.864Z,29.61
2018-04-23T11:58:48.374Z,29.30
2018-04-23T12:01:15.835Z,29.25
2018-04-23T12:03:43.441Z,29.10
2018-04-23T12:06:10.921Z,29.07
2018-04-23T12:08:38.396Z,29.09
2018-04-23T12:11:05.863Z,29.60
2018-04-23T12:13:33.327Z,29.96
2018-04-23T12:16:00.856Z,29.70
2018-04-23T12:18:28.364Z,30.16
2018-04-23T12:20:55.869Z,30.54
2018-04-23T12:23:23.342Z,30.60
2018-04-23T12:25:50.807Z,30.63
2018-04-23T12:28:18.323Z,30.79
2018-04-23T12:30:45.905Z,31.08
2018-04-23T12:33:13.358Z,31.31
2018-04-23T12:35:40.830Z,31.03
2018-04-23T12:38:08.322Z,31.20
2018-04-23T12:40:35.844Z,31.65
2018-04-23T12:43:03.299Z,31.64
2018-04-23T12:45:30.770Z,31.66
2018-04-23T12:47:58.226Z,31.69
2018-04-23T12:50:25.687Z,32.17
2018-04-23T12:52:53.146Z,32.74
2018-04-23T12:55:20.680Z,32.47
2018-04-23T12:57:48.170Z,32.43
2018-04-23T13:00:16.118Z,33.03
2018-04-23T13:02:43.597Z,34.05
2018-04-23T13:05:11.075Z,34.82
2018-04-23T13:07:38.534Z,35.14
2018-04-23T13:10:06.079Z,34.60
2018-04-23T13:12:33.614Z,33.90
2018-04-23T13:15:01.067Z,33.13
2018-04-23T13:17:28.538Z,32.79
2018-04-23T13:19:56.057Z,32.47
2018-04-23T13:22:23.523Z,33.29
2018-04-23T13:24:51.010Z,33.73
2018-04-23T13:27:18.764Z,33.73
2018-04-23T13:29:46.290Z,33.34
2018-04-23T13:32:13.824Z,32.92
2018-04-23T13:34:41.293Z,32.62
2018-04-23T13:37:08.762Z,31.87
2018-04-23T13:39:36.303Z,31.55
2018-04-23T13:42:03.781Z,31.55
2018-04-23T13:44:31.242Z,32.09
2018-04-23T13:46:58.746Z,31.81
2018-04-23T13:49:26.282Z,31.73
2018-04-23T13:51:53.747Z,32.01
2018-04-23T13:54:21.251Z,32.59
2018-04-23T13:56:48.711Z,32.76
2018-04-23T13:59:16.197Z,32.71
2018-04-23T14:01:43.693Z,32.61
2018-04-23T14:04:11.178Z,32.83
2018-04-23T14:06:38.649Z,33.01
2018-04-23T14:09:06.155Z,33.00
2018-04-23T14:11:33.661Z,33.25
2018-04-23T14:14:01.144Z,34.27
2018-04-23T14:16:28.622Z,35.20
2018-04-23T14:18:56.095Z,35.97
2018-04-23T14:21:23.603Z,36.16
2018-04-23T14:23:51.078Z,36.35
2018-04-23T14:26:18.604Z,36.13
2018-04-23T14:28:46.078Z,35.82
2018-04-23T14:31:13.549Z,35.85
2018-04-23T14:33:41.011Z,36.48
2018-04-23T14:36:08.465Z,36.49
2018-04-23T14:38:35.933Z,35.90
2018-04-23T14:41:03.394Z,34.71
2018-04-23T14:43:30.838Z,34.77
2018-04-23T14:45:58.338Z,35.11
2018-04-23T14:48:25.799Z,35.28
2018-04-23T14:50:53.275Z,36.20
2018-04-23T14:53:20.765Z,36.75
2018-04-23T14:55:48.226Z,35.75
2018-04-23T14:58:15.734Z,35.57
2018-04-23T15:00:43.192Z,34.92
2018-04-23T15:03:10.688Z,34.78
2018-04-23T15:05:38.162Z,35.77
2018-04-23T15:08:05.706Z,35.91
2018-04-23T15:10:33.215Z,34.96
2018-04-23T15:13:00.660Z,35.69
2018-04-23T15:15:28.130Z,36.71
2018-04-23T15:17:55.680Z,36.95
2018-04-23T15:20:23.080Z,36.80
2018-04-23T15:22:50.567Z,36.59
2018-04-23T15:25:18.027Z,36.71
2018-04-23T15:27:45.490Z,36.83
2018-04-23T15:30:12.959Z,38.09
2018-04-23T15:32:40.953Z,39.03
2018-04-23T15:35:08.525Z,38.60
2018-04-23T15:37:36.056Z,38.64
2018-04-23T15:40:03.562Z,37.82
2018-04-23T15:42:31.043Z,37.89
2018-04-23T15:44:58.578Z,37.27
2018-04-23T15:47:26.047Z,37.31
2018-04-23T15:49:53.518Z,37.21
2018-04-23T15:52:20.979Z,36.50
2018-04-23T15:54:48.463Z,34.69
2018-04-23T15:57:15.937Z,33.35
2018-04-23T15:59:43.398Z,32.74
2018-04-23T16:02:10.853Z,32.49
2018-04-23T16:04:38.315Z,32.65
2018-04-23T16:07:05.802Z,33.99
2018-04-23T16:09:33.283Z,34.39
2018-04-23T16:12:00.750Z,34.70
2018-04-23T16:14:28.845Z,34.87
2018-04-23T16:16:56.310Z,33.86
2018-04-23T16:19:23.772Z,34.09
2018-04-23T16:21:51.245Z,34.61
2018-04-23T16:24:18.706Z,35.22
2018-04-23T16:26:46.189Z,34.93
2018-04-23T16:29:14.726Z,35.31
2018-04-23T16:31:42.222Z,35.22
2018-04-23T16:34:09.773Z,34.22
2018-04-23T16:36:37.224Z,33.91
2018-04-23T16:39:04.741Z,33.78
2018-04-23T16:41:32.209Z,33.60
2018-04-23T16:43:59.688Z,33.36
2018-04-23T16:46:27.180Z,32.93
2018-04-23T16:48:54.670Z,32.69
2018-04-23T16:51:22.118Z,31.54
2018-04-23T16:53:49.599Z,31.00
2018-04-23T16:56:17.074Z,30.46
2018-04-23T16:58:44.543Z,29.75
2018-04-23T17:01:12.042Z,29.31
2018-04-23T17:03:39.511Z,29.21
2018-04-23T17:06:07.020Z,28.84
2018-04-23T17:08:34.537Z,28.77
2018-04-23T17:11:02.066Z,28.20
2018-04-23T17:13:29.523Z,27.78
2018-04-23T17:15:56.999Z,27.55
2018-04-23T17:18:24.471Z,27.40
2018-04-23T17:20:51.946Z,27.14
2018-04-23T17:23:19.422Z,27.00
2018-04-23T17:25:46.899Z,26.83
2018-04-23T17:28:14.364Z,26.65
2018-04-23T17:30:41.827Z,26.56
2018-04-23T17:33:09.306Z,26.39
2018-04-23T17:35:36.756Z,26.26
2018-04-23T17:38:04.260Z,26.08
2018-04-23T17:40:31.710Z,25.88
2018-04-23T17:42:59.200Z,25.69
2018-04-23T17:45:26.694Z,25.68
2018-04-23T17:47:54.145Z,25.51
2018-04-23T17:50:21.648Z,25.15
2018-04-23T17:52:49.148Z,24.81
2018-04-23T17:55:16.602Z,24.47
2018-04-23T17:57:44.165Z,24.23
2018-04-23T18:00:11.907Z,23.86
2018-04-23T18:02:39.420Z,23.62
2018-04-23T18:05:06.908Z,23.28
2018-04-23T18:07:35.168Z,23.13
2018-04-23T18:10:02.776Z,23.02
2018-04-23T18:12:30.316Z,22.89
2018-04-23T18:14:58.079Z,22.79
2018-04-23T18:17:25.601Z,22.64
2018-04-23T18:19:53.136Z,22.43
2018-04-23T18:22:20.900Z,22.24
2018-04-23T18:24:48.365Z,22.10
2018-04-23T18:27:15.988Z,21.96
2018-04-23T18:29:43.476Z,21.81
2018-04-23T18:32:11.059Z,21.67
2018-04-23T18:34:38.547Z,21.58
2018-04-23T18:37:06.103Z,21.53
2018-04-23T18:39:33.683Z,21.56
2018-04-23T18:42:01.157Z,21.43
2018-04-23T18:44:28.660Z,21.29
2018-04-23T18:46:56.159Z,21.18
2018-04-23T18:49:23.667Z,21.12
2018-04-23T18:51:51.144Z,21.06
2018-04-23T18:54:18.642Z,21.18
2018-04-23T18:56:46.875Z,21.32
2018-04-23T18:59:14.461Z,21.35
2018-04-23T19:01:41.927Z,21.30
2018-04-23T19:04:09.424Z,21.26
2018-04-23T19:06:36.919Z,21.15
2018-04-23T19:09:04.444Z,21.09
2018-04-23T19:11:31.928Z,21.07
2018-04-23T19:13:59.365Z,21.06
2018-04-23T19:16:26.874Z,21.05
2018-04-23T19:18:54.391Z,21.07
2018-04-23T19:21:22.333Z,21.13
2018-04-23T19:23:49.798Z,21.08
2018-04-23T19:26:17.586Z,21.03
2018-04-23T19:28:45.241Z,21.02
2018-04-23T19:31:12.716Z,21.03
2018-04-23T19:33:40.224Z,21.14
2018-04-23T19:36:07.736Z,21.13
2018-04-23T19:38:35.270Z,21.18
2018-04-23T19:41:02.749Z,21.28
2018-04-23T19:43:30.249Z,21.30
2018-04-23T19:45:57.824Z,21.36
2018-04-23T19:48:25.337Z,21.28
2018-04-23T19:50:52.848Z,21.12
2018-04-23T19:53:20.474Z,20.96
2018-04-23T19:55:48.004Z,20.84
2018-04-23T19:58:15.462Z,20.70
2018-04-23T20:00:42.992Z,20.58
2018-04-23T20:03:10.472Z,20.50
2018-04-23T20:05:38.049Z,20.40
2018-04-23T20:08:05.604Z,20.33
2018-04-23T20:10:33.129Z,20.26
2018-04-23T20:13:00.609Z,20.21
2018-04-23T20:15:28.086Z,20.16
2018-04-23T20:17:55.576Z,20.14
2018-04-23T20:20:23.075Z,20.11
2018-04-23T20:22:50.579Z,20.21
2018-04-23T20:25:18.104Z,20.25
2018-04-23T20:27:45.572Z,20.25
2018-04-23T20:30:13.031Z,20.34
2018-04-23T20:32:40.519Z,20.49
2018-04-23T20:35:08.009Z,20.40
2018-04-23T20:37:35.486Z,20.37
2018-04-23T20:40:03.029Z,20.44
2018-04-23T20:42:30.903Z,20.53
2018-04-23T20:44:58.375Z,20.53
2018-04-23T20:47:25.889Z,20.45
2018-04-23T20:49:53.421Z,20.42
2018-04-23T20:52:21.458Z,20.24
2018-04-23T20:54:49.343Z,20.21
2018-04-23T20:57:17.088Z,20.12
2018-04-23T20:59:44.587Z,20.17
2018-04-23T21:02:12.088Z,20.07
2018-04-23T21:04:39.657Z,20.03
2018-04-23T21:07:07.107Z,19.87
2018-04-23T21:09:34.594Z,19.75
2018-04-23T21:12:02.135Z,19.63
2018-04-23T21:14:29.623Z,19.57
2018-04-23T21:16:57.903Z,19.47
2018-04-23T21:19:25.369Z,19.53
2018-04-23T21:21:52.853Z,19.57
2018-04-23T21:24:21.088Z,19.57
2018-04-23T21:26:49.765Z,19.52
2018-04-23T21:29:17.890Z,19.50
2018-04-23T21:31:45.480Z,19.51
2018-04-23T21:34:12.893Z,19.57
2018-04-23T21:36:40.399Z,19.56
2018-04-23T21:39:07.898Z,19.77
2018-04-23T21:41:35.381Z,19.86
2018-04-23T21:44:03.108Z,19.87
2018-04-23T21:46:30.579Z,19.92
2018-04-23T21:48:58.115Z,20.04
2018-04-23T21:51:25.705Z,20.15
2018-04-23T21:53:53.455Z,20.20
2018-04-23T21:56:20.935Z,20.18
2018-04-23T21:58:48.389Z,20.00
2018-04-23T22:01:15.856Z,19.88
2018-04-23T22:03:43.968Z,19.68
2018-04-23T22:06:11.487Z,19.38
2018-04-23T22:08:39.082Z,18.99
2018-04-23T22:11:06.590Z,18.85
2018-04-23T22:13:34.095Z,18.69
2018-04-23T22:16:01.633Z,18.38
2018-04-23T22:18:29.097Z,18.19
2018-04-23T22:20:56.596Z,18.20
2018-04-23T22:23:24.077Z,18.31
2018-04-23T22:25:51.539Z,18.17
2018-04-23T22:28:19.208Z,17.99
2018-04-23T22:30:46.678Z,17.89
2018-04-23T22:33:14.155Z,17.81
2018-04-23T22:35:41.630Z,17.70
2018-04-23T22:38:09.120Z,17.61
2018-04-23T22:40:36.603Z,17.59
2018-04-23T22:43:04.118Z,17.49
2018-04-23T22:45:31.571Z,17.50
2018-04-23T22:47:59.042Z,17.48
2018-04-23T22:50:26.713Z,17.34
2018-04-23T22:52:54.222Z,17.26
2018-04-23T22:55:21.754Z,17.26
2018-04-23T22:57:49.223Z,17.25
2018-04-23T23:00:16.778Z,17.17
2018-04-23T23:02:44.241Z,17.10
2018-04-23T23:05:11.731Z,17.04
2018-04-23T23:07:39.202Z,17.09
2018-04-23T23:10:06.685Z,17.07
2018-04-23T23:12:34.174Z,17.11
2018-04-23T23:15:02.539Z,17.15
2018-04-23T23:17:30.077Z,17.24
2018-04-23T23:19:57.519Z,17.24
2018-04-23T23:22:25.028Z,17.30
2018-04-23T23:24:52.526Z,17.30
2018-04-23T23:27:20.069Z,17.34
2018-04-23T23:29:47.498Z,17.24
2018-04-23T23:32:15.111Z,17.31
2018-04-23T23:34:42.623Z,17.30
2018-04-23T23:37:10.079Z,17.28
2018-04-23T23:39:37.552Z,17.26
2018-04-23T23:42:05.046Z,17.18
2018-04-23T23:44:32.579Z,17.23
2018-04-23T23:47:00.040Z,17.22
2018-04-23T23:49:27.488Z,17.26
2018-04-23T23:51:54.937Z,17.21
2018-04-23T23:54:22.395Z,17.24
2018-04-23T23:56:49.833Z,17.32
2018-04-23T23:59:17.339Z,17.37
